Time;durP1;ratioP1;P1;durP2;ratioP2;P2;SDS_P1;SDS_P2;PMS_P1;PMS_P2;Temp;Humidity;BMP_temperature;BMP_pressure;BME280_temperature;BME280_humidity;BME280_pressure;Samples;Min_cycle;Max_cycle;Signal;HPM_P1;HPM_P2
2021/08/31 00:01:42;;;;;;;15.10;9.75;;;14.90;99.90;;;;;;1893577;75;21068;-76
2021/08/31 00:04:08;;;;;;;12.43;10.82;;;14.90;99.90;;;;;;1890236;75;21060;-77
2021/08/31 00:06:34;;;;;;;12.33;10.60;;;14.90;99.90;;;;;;1889241;76;21145;-76
2021/08/31 00:09:00;;;;;;;13.20;10.30;;;14.90;99.90;;;;;;1889125;76;21138;-76
2021/08/31 00:11:26;;;;;;;16.65;11.08;;;14.90;99.90;;;;;;1889312;76;21149;-76
2021/08/31 00:13:52;;;;;;;12.25;10.48;;;14.90;99.90;;;;;;1889135;76;21081;-76
2021/08/31 00:16:18;;;;;;;11.68;10.48;;;14.90;99.90;;;;;;1889306;76;21118;-76
2021/08/31 00:18:44;;;;;;;13.13;10.30;;;14.90;99.90;;;;;;1889057;76;21077;-76
2021/08/31 00:21:10;;;;;;;12.85;9.98;;;14.90;99.90;;;;;;1889285;76;21068;-76
2021/08/31 00:23:37;;;;;;;10.40;9.40;;;14.90;99.90;;;;;;1889216;76;21044;-76
2021/08/31 00:26:03;;;;;;;10.63;9.53;;;14.90;99.90;;;;;;1889303;76;21564;-76
2021/08/31 00:28:29;;;;;;;13.45;9.35;;;14.90;99.90;;;;;;1889214;76;21452;-76
2021/08/31 00:30:55;;;;;;;11.25;9.28;;;14.90;99.90;;;;;;1889178;76;21562;-76
2021/08/31 00:33:21;;;;;;;11.75;9.00;;;15.00;99.90;;;;;;1889134;76;21452;-76
2021/08/31 00:35:47;;;;;;;10.28;9.18;;;15.00;99.90;;;;;;1889319;76;21578;-76
2021/08/31 00:38:13;;;;;;;10.10;9.03;;;15.00;99.90;;;;;;1889119;76;21488;-76
2021/08/31 00:40:39;;;;;;;11.75;8.70;;;15.00;99.90;;;;;;1889260;76;21496;-76
2021/08/31 00:43:06;;;;;;;9.13;8.23;;;14.90;99.90;;;;;;1889116;76;21068;-76
2021/08/31 00:45:32;;;;;;;10.08;8.68;;;14.90;99.90;;;;;;1889319;75;21068;-76
2021/08/31 00:47:58;;;;;;;9.23;7.97;;;14.90;99.90;;;;;;1889334;76;21102;-77
2021/08/31 00:50:24;;;;;;;9.00;7.92;;;14.90;99.90;;;;;;1889378;76;21096;-76
2021/08/31 00:52:52;;;;;;;14.28;8.58;;;14.80;99.90;;;;;;1889094;76;21068;-76
2021/08/31 00:55:18;;;;;;;9.88;7.90;;;14.80;99.90;;;;;;1889308;76;21072;-76
2021/08/31 00:57:44;;;;;;;10.18;7.87;;;14.80;99.90;;;;;;1889205;75;21134;-76
2021/08/31 01:00:10;;;;;;;8.43;7.62;;;14.80;99.90;;;;;;1889179;76;21068;-76
2021/08/31 01:02:36;;;;;;;9.20;7.83;;;14.90;99.90;;;;;;1889237;75;21072;-76
2021/08/31 01:05:02;;;;;;;9.10;7.90;;;14.80;99.90;;;;;;1889208;76;21095;-76
2021/08/31 01:07:28;;;;;;;8.68;7.55;;;14.90;99.90;;;;;;1889278;76;21068;-76
2021/08/31 01:09:55;;;;;;;11.15;8.13;;;14.80;99.90;;;;;;1889282;76;21064;-76
2021/08/31 01:12:21;;;;;;;10.98;7.75;;;14.90;99.90;;;;;;1889256;76;21133;-76
2021/08/31 01:14:47;;;;;;;9.95;7.65;;;14.90;99.90;;;;;;1889294;76;21129;-76
2021/08/31 01:17:13;;;;;;;10.20;8.13;;;14.80;99.90;;;;;;1889288;75;21084;-76
2021/08/31 01:19:39;;;;;;;8.30;7.40;;;14.80;99.90;;;;;;1889145;76;21072;-76
2021/08/31 01:22:05;;;;;;;9.50;7.50;;;14.70;99.90;;;;;;1889342;76;21130;-75
2021/08/31 01:24:31;;;;;;;8.98;7.97;;;14.70;99.90;;;;;;1889165;76;21496;-75
2021/08/31 01:26:58;;;;;;;8.93;8.03;;;14.70;99.90;;;;;;1889234;76;21529;-76
2021/08/31 01:29:24;;;;;;;7.40;6.62;;;14.70;99.90;;;;;;1889063;75;21122;-76
2021/08/31 01:31:50;;;;;;;10.00;7.20;;;14.80;99.90;;;;;;1889156;76;21138;-76
2021/08/31 01:34:16;;;;;;;14.93;6.58;;;14.80;99.90;;;;;;1889163;76;21064;-76
2021/08/31 01:36:42;;;;;;;7.05;6.22;;;14.80;99.90;;;;;;1889174;76;21101;-76
2021/08/31 01:39:08;;;;;;;6.90;6.20;;;14.80;99.90;;;;;;1889156;76;21037;-76
2021/08/31 01:41:35;;;;;;;7.08;6.47;;;14.70;99.90;;;;;;1889133;76;21065;-76
2021/08/31 01:44:01;;;;;;;9.35;7.28;;;14.80;99.90;;;;;;1889158;76;21126;-76
2021/08/31 01:46:27;;;;;;;9.85;8.13;;;14.80;99.90;;;;;;1889248;76;21142;-76
2021/08/31 01:48:53;;;;;;;7.92;7.12;;;14.80;99.90;;;;;;1889038;76;21115;-76
2021/08/31 01:51:19;;;;;;;9.18;8.15;;;14.90;99.90;;;;;;1889279;76;21039;-76
2021/08/31 01:53:45;;;;;;;8.53;7.62;;;14.80;99.90;;;;;;1889150;76;21126;-76
2021/08/31 01:56:11;;;;;;;9.20;7.33;;;14.90;99.90;;;;;;1889202;76;21129;-76
2021/08/31 01:58:41;;;;;;;9.48;8.23;;;14.90;99.90;;;;;;1889016;76;21076;-76
2021/08/31 02:01:07;;;;;;;9.15;8.25;;;14.90;99.90;;;;;;1888409;75;21049;-77
2021/08/31 02:03:33;;;;;;;10.48;7.78;;;15.00;99.90;;;;;;1889210;76;21181;-77
2021/08/31 02:05:59;;;;;;;9.30;8.38;;;14.90;99.90;;;;;;1889060;76;21068;-77
2021/08/31 02:08:25;;;;;;;9.25;7.92;;;15.00;99.90;;;;;;1889244;76;21037;-77
2021/08/31 02:10:51;;;;;;;12.85;9.15;;;14.90;99.90;;;;;;1889333;76;21096;-77
2021/08/31 02:13:17;;;;;;;10.72;9.63;;;14.90;99.90;;;;;;1889302;75;21081;-76
2021/08/31 02:15:44;;;;;;;15.70;10.48;;;14.90;99.90;;;;;;1889313;76;21093;-77
2021/08/31 02:18:10;;;;;;;10.03;8.45;;;14.90;99.90;;;;;;1889220;75;21064;-77
2021/08/31 02:20:36;;;;;;;11.12;8.65;;;14.90;99.90;;;;;;1889315;76;21104;-77
2021/08/31 02:23:02;;;;;;;8.80;7.87;;;14.90;99.90;;;;;;1889229;76;21211;-77
2021/08/31 02:25:28;;;;;;;10.30;9.20;;;14.80;99.90;;;;;;1889368;76;21033;-77
2021/08/31 02:27:54;;;;;;;11.57;9.48;;;14.80;99.90;;;;;;1889116;76;21133;-77
2021/08/31 02:30:20;;;;;;;11.33;9.45;;;14.80;99.90;;;;;;1889109;76;21064;-77
2021/08/31 02:32:46;;;;;;;9.23;8.33;;;14.80;99.90;;;;;;1889167;76;21037;-77
2021/08/31 02:35:13;;;;;;;10.35;9.35;;;14.80;99.90;;;;;;1889227;76;21064;-77
2021/08/31 02:37:39;;;;;;;11.90;10.28;;;14.80;99.90;;;;;;1901377;75;21072;-77
2021/08/31 02:40:05;;;;;;;11.43;10.23;;;14.70;99.90;;;;;;1894682;75;21169;-77
2021/08/31 02:42:31;;;;;;;11.53;9.58;;;14.80;99.90;;;;;;1889148;76;21083;-76
2021/08/31 02:44:57;;;;;;;12.47;10.45;;;14.70;99.90;;;;;;1889090;76;21091;-76
2021/08/31 02:47:23;;;;;;;11.43;10.20;;;14.70;99.90;;;;;;1889097;76;21123;-76
2021/08/31 02:49:49;;;;;;;11.65;9.68;;;14.70;99.90;;;;;;1889238;76;21056;-76
2021/08/31 02:52:15;;;;;;;15.35;10.68;;;14.70;99.90;;;;;;1889120;75;21488;-76
2021/08/31 02:54:42;;;;;;;11.50;10.25;;;14.70;99.90;;;;;;1889052;75;21465;-76
2021/08/31 02:57:08;;;;;;;13.50;10.05;;;14.60;99.90;;;;;;1889133;76;21471;-77
2021/08/31 02:59:34;;;;;;;14.95;10.50;;;14.60;99.90;;;;;;1889179;76;21546;-77
2021/08/31 03:04:28;;;;;;;11.22;10.05;;;14.50;99.90;;;;;;1889220;75;21101;-77
2021/08/31 03:06:54;;;;;;;15.78;10.10;;;14.50;99.90;;;;;;1889139;76;21072;-77
2021/08/31 03:09:20;;;;;;;11.88;10.53;;;14.50;99.90;;;;;;1889129;76;21231;-77
2021/08/31 03:11:46;;;;;;;11.90;10.32;;;14.40;99.90;;;;;;1889148;75;21071;-77
2021/08/31 03:14:12;;;;;;;11.35;10.15;;;14.30;99.90;;;;;;1889111;76;21079;-77
2021/08/31 03:16:38;;;;;;;11.75;9.63;;;14.30;99.90;;;;;;1889099;76;21496;-76
2021/08/31 03:19:05;;;;;;;11.83;8.90;;;14.40;99.90;;;;;;1889121;76;21068;-77
2021/08/31 03:21:31;;;;;;;9.75;8.25;;;14.30;99.90;;;;;;1889056;76;21075;-77
2021/08/31 03:23:57;;;;;;;9.28;7.45;;;14.30;99.90;;;;;;1889136;76;21129;-77
2021/08/31 03:26:24;;;;;;;12.88;7.97;;;14.30;99.90;;;;;;1889073;76;21193;-77
2021/08/31 03:28:50;;;;;;;11.20;7.97;;;14.30;99.90;;;;;;1889181;76;21076;-77
2021/08/31 03:31:16;;;;;;;9.45;7.67;;;14.30;99.90;;;;;;1888999;76;21041;-76
2021/08/31 03:33:42;;;;;;;15.23;8.53;;;14.30;99.90;;;;;;1889188;76;21076;-77
2021/08/31 03:36:08;;;;;;;9.50;8.33;;;14.30;99.90;;;;;;1888986;76;21080;-76
2021/08/31 03:38:35;;;;;;;10.82;9.73;;;14.20;99.90;;;;;;1889192;75;21079;-77
2021/08/31 03:41:01;;;;;;;10.93;9.85;;;14.30;99.90;;;;;;1888981;76;21131;-77
2021/08/31 03:43:27;;;;;;;17.02;11.35;;;14.30;99.90;;;;;;1889322;76;21133;-77
2021/08/31 03:45:53;;;;;;;12.75;10.88;;;14.20;99.90;;;;;;1889146;76;21165;-77
2021/08/31 03:48:19;;;;;;;15.18;12.18;;;14.20;99.90;;;;;;1889208;75;21096;-77
2021/08/31 03:50:46;;;;;;;14.00;11.93;;;14.10;99.90;;;;;;1889208;76;21049;-77
2021/08/31 03:53:12;;;;;;;15.30;12.37;;;14.10;99.90;;;;;;1889289;74;21120;-77
2021/08/31 03:55:38;;;;;;;14.93;12.03;;;14.10;99.90;;;;;;1889130;76;21071;-76
2021/08/31 03:58:06;;;;;;;17.57;13.30;;;14.10;99.90;;;;;;1889308;76;21136;-76
2021/08/31 04:00:32;;;;;;;18.77;13.20;;;14.10;99.90;;;;;;1889054;75;21133;-76
2021/08/31 04:02:58;;;;;;;16.17;13.20;;;14.00;99.90;;;;;;1889240;76;21068;-77
2021/08/31 04:05:24;;;;;;;18.02;14.68;;;14.00;99.90;;;;;;1889215;76;21088;-77
2021/08/31 04:07:50;;;;;;;15.60;13.83;;;14.00;99.90;;;;;;1889244;76;21072;-76
2021/08/31 04:10:16;;;;;;;15.13;13.50;;;14.00;99.90;;;;;;1889119;76;21068;-79
2021/08/31 04:12:42;;;;;;;17.27;13.32;;;14.00;99.90;;;;;;1889259;76;21048;-77
2021/08/31 04:15:09;;;;;;;14.35;12.47;;;14.00;99.90;;;;;;1889249;76;21072;-77
2021/08/31 04:17:35;;;;;;;15.53;13.93;;;14.00;99.90;;;;;;1889212;76;21080;-77
2021/08/31 04:20:01;;;;;;;19.82;14.55;;;14.00;99.90;;;;;;1889174;76;21050;-77
2021/08/31 04:22:27;;;;;;;14.85;13.32;;;14.10;99.90;;;;;;1889187;76;21068;-76
2021/08/31 04:24:53;;;;;;;16.35;13.50;;;14.10;99.90;;;;;;1889229;76;21076;-76
2021/08/31 04:27:19;;;;;;;22.35;13.55;;;14.20;99.90;;;;;;1889197;76;21035;-76
2021/08/31 04:29:45;;;;;;;16.07;12.68;;;14.20;99.90;;;;;;1889232;76;21072;-76
2021/08/31 04:32:11;;;;;;;18.35;12.88;;;14.20;99.90;;;;;;1889206;76;21088;-76
2021/08/31 04:34:38;;;;;;;15.95;13.13;;;14.20;99.90;;;;;;1889179;76;21072;-76
2021/08/31 04:37:04;;;;;;;16.52;12.65;;;14.30;99.90;;;;;;1889185;76;21123;-76
2021/08/31 04:39:30;;;;;;;16.32;12.75;;;14.30;99.90;;;;;;1889154;76;21080;-76
2021/08/31 04:42:02;;;;;;;17.35;13.53;;;14.30;99.90;;;;;;1889194;76;21138;-75
2021/08/31 04:44:24;;;;;;;17.23;13.45;;;14.30;99.90;;;;;;1888882;75;21148;-77
2021/08/31 04:46:50;;;;;;;15.65;13.55;;;14.30;99.90;;;;;;1889395;76;21167;-76
2021/08/31 04:49:16;;;;;;;18.30;13.88;;;14.40;99.90;;;;;;1889416;75;21089;-76
2021/08/31 04:51:42;;;;;;;18.20;13.60;;;14.30;99.90;;;;;;1889376;75;21171;-77
2021/08/31 04:54:08;;;;;;;15.00;12.95;;;14.40;99.90;;;;;;1889354;76;21129;-77
2021/08/31 04:56:34;;;;;;;14.03;12.20;;;14.50;99.90;;;;;;1889064;76;21104;-77
2021/08/31 04:59:00;;;;;;;14.15;12.65;;;14.50;99.90;;;;;;1889170;76;21072;-77
2021/08/31 05:01:27;;;;;;;14.65;13.00;;;14.60;99.90;;;;;;1890736;75;21149;-77
2021/08/31 05:03:53;;;;;;;17.45;12.63;;;14.50;99.90;;;;;;1888998;75;21202;-77
2021/08/31 05:06:19;;;;;;;17.12;12.40;;;14.60;99.90;;;;;;1889163;76;21068;-77
2021/08/31 05:08:45;;;;;;;12.18;10.98;;;14.60;99.90;;;;;;1889137;76;21240;-77
2021/08/31 05:11:11;;;;;;;14.78;10.60;;;14.70;99.90;;;;;;1889013;76;21076;-77
2021/08/31 05:13:40;;;;;;;14.23;10.65;;;14.60;99.90;;;;;;1889122;75;21134;-77
2021/08/31 05:16:05;;;;;;;14.75;10.45;;;14.70;99.90;;;;;;1889038;75;21083;-77
2021/08/31 05:18:32;;;;;;;11.88;10.63;;;14.60;99.90;;;;;;1889267;76;21045;-77
2021/08/31 05:20:59;;;;;;;15.65;10.30;;;14.70;99.90;;;;;;1907374;74;21515;-77
2021/08/31 05:23:25;;;;;;;12.53;9.85;;;14.60;99.90;;;;;;1889134;76;21573;-77
2021/08/31 05:25:51;;;;;;;12.60;9.65;;;14.60;99.90;;;;;;1919597;75;21056;-77
2021/08/31 05:28:17;;;;;;;12.00;8.40;;;14.60;99.90;;;;;;1897602;75;21142;-78
2021/08/31 05:30:43;;;;;;;10.45;9.18;;;14.70;99.90;;;;;;1899217;75;21142;-77
2021/08/31 05:33:09;;;;;;;13.38;8.63;;;14.80;99.90;;;;;;1889168;76;21068;-77
2021/08/31 05:35:41;;;;;;;10.00;8.20;;;14.70;99.90;;;;;;1889139;76;21068;-77
2021/08/31 05:38:07;;;;;;;12.35;8.65;;;14.80;99.90;;;;;;1889156;76;21041;-76
2021/08/31 05:40:33;;;;;;;10.53;9.15;;;14.80;99.90;;;;;;1889583;76;21071;-77
2021/08/31 05:42:59;;;;;;;9.33;8.43;;;14.80;99.90;;;;;;1892035;76;21134;-77
2021/08/31 05:45:25;;;;;;;9.83;8.70;;;14.80;99.90;;;;;;1890221;76;21110;-77
2021/08/31 05:47:51;;;;;;;11.73;8.93;;;14.80;99.90;;;;;;1889189;76;21134;-76
2021/08/31 05:50:17;;;;;;;8.53;7.72;;;14.80;99.90;;;;;;1889321;76;21170;-76
2021/08/31 05:52:43;;;;;;;13.25;7.85;;;14.80;99.90;;;;;;1889085;76;21080;-77
2021/08/31 05:55:10;;;;;;;8.50;7.65;;;14.80;99.90;;;;;;1889282;75;21176;-76
2021/08/31 05:57:36;;;;;;;9.83;7.47;;;14.80;99.90;;;;;;1889068;76;21122;-77
2021/08/31 06:00:02;;;;;;;15.93;7.75;;;14.90;99.90;;;;;;1889174;76;21145;-76
2021/08/31 06:02:28;;;;;;;8.45;7.50;;;14.90;99.90;;;;;;1889121;76;21017;-77
2021/08/31 06:04:54;;;;;;;10.88;7.05;;;15.00;99.90;;;;;;1889259;76;21504;-77
2021/08/31 06:07:21;;;;;;;9.93;7.62;;;15.00;99.90;;;;;;1889206;76;21526;-77
2021/08/31 06:09:47;;;;;;;7.92;7.12;;;15.20;99.90;;;;;;1889114;76;21076;-77
2021/08/31 06:12:13;;;;;;;8.20;7.25;;;15.20;99.90;;;;;;1889139;76;21072;-76
2021/08/31 06:14:39;;;;;;;12.53;7.22;;;15.20;99.90;;;;;;1889204;76;21045;-77
2021/08/31 06:17:05;;;;;;;10.15;7.37;;;15.30;99.90;;;;;;1889070;76;21092;-77
2021/08/31 06:19:31;;;;;;;8.35;6.75;;;15.30;99.90;;;;;;1889021;76;21507;-77
2021/08/31 06:21:57;;;;;;;7.85;6.47;;;15.30;99.90;;;;;;1889031;76;21504;-77
2021/08/31 06:24:24;;;;;;;8.60;6.90;;;15.30;99.90;;;;;;1889043;76;21493;-77
2021/08/31 06:26:50;;;;;;;7.37;6.72;;;15.30;99.90;;;;;;1889074;76;21501;-78
2021/08/31 06:29:16;;;;;;;7.80;6.92;;;15.40;99.90;;;;;;1889047;75;21496;-77
2021/08/31 06:31:42;;;;;;;7.85;6.20;;;15.50;99.90;;;;;;1889293;76;21071;-77
2021/08/31 06:34:08;;;;;;;6.92;6.22;;;15.50;99.90;;;;;;1889083;76;21044;-77
2021/08/31 06:36:34;;;;;;;7.17;6.40;;;15.50;99.90;;;;;;1889055;76;21138;-77
2021/08/31 06:39:00;;;;;;;7.12;6.35;;;15.60;99.90;;;;;;1889070;76;21041;-77
2021/08/31 06:41:26;;;;;;;7.58;6.25;;;15.60;99.90;;;;;;1889320;75;21080;-77
2021/08/31 06:43:53;;;;;;;7.42;6.45;;;15.70;99.90;;;;;;1889058;75;21044;-77
2021/08/31 06:46:19;;;;;;;6.85;5.67;;;15.80;99.90;;;;;;1889246;76;21064;-77
2021/08/31 06:48:45;;;;;;;6.60;5.95;;;16.00;99.90;;;;;;1889045;76;21115;-77
2021/08/31 06:51:11;;;;;;;7.42;5.87;;;16.10;99.90;;;;;;1889061;76;21130;-77
2021/08/31 06:53:37;;;;;;;10.72;5.95;;;16.10;99.90;;;;;;1889047;76;21041;-77
2021/08/31 06:56:03;;;;;;;6.37;5.65;;;16.40;99.90;;;;;;1889157;76;21072;-77
2021/08/31 06:58:29;;;;;;;6.47;5.83;;;16.60;99.90;;;;;;1889074;76;21072;-77
2021/08/31 07:00:55;;;;;;;6.25;5.65;;;16.60;99.90;;;;;;1889055;76;21180;-77
2021/08/31 07:03:22;;;;;;;7.47;6.30;;;16.40;99.90;;;;;;1889072;76;21041;-77
2021/08/31 07:05:48;;;;;;;5.90;5.40;;;16.30;99.90;;;;;;1889295;76;21109;-76
2021/08/31 07:08:14;;;;;;;6.95;5.70;;;16.30;99.90;;;;;;1889277;76;21125;-77
2021/08/31 07:10:40;;;;;;;6.75;4.97;;;16.30;99.90;;;;;;1889011;76;21084;-77
2021/08/31 07:13:06;;;;;;;6.75;5.70;;;16.40;99.90;;;;;;1889159;76;21041;-77
2021/08/31 07:15:32;;;;;;;12.68;5.60;;;16.60;99.90;;;;;;1889193;76;21111;-77
2021/08/31 07:17:58;;;;;;;7.35;5.60;;;16.80;99.90;;;;;;1889084;76;21064;-77
2021/08/31 07:20:24;;;;;;;5.20;4.70;;;16.60;99.90;;;;;;1889308;76;21185;-78
2021/08/31 07:22:51;;;;;;;6.67;5.60;;;16.80;99.90;;;;;;1889165;76;21036;-77
2021/08/31 07:25:17;;;;;;;6.58;5.50;;;16.80;99.90;;;;;;1889172;75;21068;-77
2021/08/31 07:27:43;;;;;;;5.67;5.17;;;16.70;99.90;;;;;;1901941;75;21080;-77
2021/08/31 07:30:09;;;;;;;8.98;5.87;;;16.70;99.90;;;;;;1889161;76;21080;-77
2021/08/31 07:32:35;;;;;;;9.13;5.50;;;16.90;99.90;;;;;;1889163;76;21131;-77
2021/08/31 07:35:01;;;;;;;5.30;4.70;;;16.90;99.90;;;;;;1889236;76;21079;-77
2021/08/31 07:37:27;;;;;;;8.38;4.75;;;16.90;99.90;;;;;;1889211;76;21141;-77
2021/08/31 07:39:54;;;;;;;5.12;4.62;;;17.10;99.90;;;;;;1889194;76;21083;-77
2021/08/31 07:42:20;;;;;;;5.78;4.53;;;17.20;99.90;;;;;;1889238;76;21515;-75
2021/08/31 07:44:46;;;;;;;6.55;4.87;;;17.40;99.90;;;;;;1889327;75;21409;-74
2021/08/31 07:47:13;;;;;;;6.47;4.70;;;17.30;99.90;;;;;;1889326;75;21044;-76
2021/08/31 07:49:39;;;;;;;6.33;4.67;;;17.40;99.90;;;;;;1889397;76;21558;-76
2021/08/31 07:52:06;;;;;;;5.25;4.70;;;17.40;99.90;;;;;;1889513;76;21580;-76
2021/08/31 07:54:33;;;;;;;4.42;4.03;;;17.30;99.90;;;;;;1889519;76;21080;-76
2021/08/31 07:56:59;;;;;;;5.78;4.97;;;17.40;99.90;;;;;;1890196;75;21105;-76
2021/08/31 07:59:26;;;;;;;6.95;5.08;;;17.50;99.90;;;;;;1890129;75;21161;-76
2021/08/31 08:01:53;;;;;;;6.58;5.42;;;17.40;99.90;;;;;;1889339;76;21079;-75
2021/08/31 08:04:19;;;;;;;7.87;5.45;;;17.00;99.90;;;;;;1889215;76;21071;-77
2021/08/31 08:06:45;;;;;;;10.98;4.45;;;17.00;99.90;;;;;;1889230;76;21095;-77
2021/08/31 08:09:11;;;;;;;5.72;4.62;;;17.00;99.90;;;;;;1889276;75;21083;-76
2021/08/31 08:11:38;;;;;;;7.20;4.58;;;17.30;99.90;;;;;;1889374;76;21179;-76
2021/08/31 08:14:04;;;;;;;4.87;4.20;;;17.50;99.90;;;;;;1889912;75;21085;-76
2021/08/31 08:16:30;;;;;;;7.67;4.42;;;17.50;99.90;;;;;;1890298;75;21037;-76
2021/08/31 08:18:56;;;;;;;5.08;4.55;;;17.50;99.90;;;;;;1889441;76;21530;-77
2021/08/31 08:21:22;;;;;;;5.67;4.25;;;17.40;99.90;;;;;;1889261;76;21578;-76
2021/08/31 08:23:48;;;;;;;5.95;4.08;;;17.70;99.90;;;;;;1889271;76;21562;-76
2021/08/31 08:26:14;;;;;;;6.05;4.67;;;17.70;99.90;;;;;;1889092;76;21450;-76
2021/08/31 08:28:41;;;;;;;9.35;4.58;;;17.60;99.90;;;;;;1889012;76;21533;-77
2021/08/31 08:31:07;;;;;;;5.90;4.92;;;17.80;99.90;;;;;;1889240;76;21481;-77
2021/08/31 08:33:33;;;;;;;5.42;4.35;;;17.60;99.90;;;;;;1889037;75;21072;-78
2021/08/31 08:35:59;;;;;;;5.37;4.87;;;17.60;99.90;;;;;;1889166;76;21041;-77
2021/08/31 08:38:25;;;;;;;5.75;4.70;;;17.70;99.90;;;;;;1888944;76;21177;-77
2021/08/31 08:40:51;;;;;;;14.65;4.97;;;17.70;99.90;;;;;;1889111;76;21143;-77
2021/08/31 08:43:17;;;;;;;7.10;4.85;;;17.50;99.90;;;;;;1889026;76;21068;-77
2021/08/31 08:45:44;;;;;;;7.10;5.17;;;17.70;99.90;;;;;;1889189;75;21088;-77
2021/08/31 08:48:10;;;;;;;9.00;4.75;;;17.80;99.90;;;;;;1889041;75;21041;-77
2021/08/31 08:50:36;;;;;;;6.10;4.58;;;17.90;99.90;;;;;;1889282;76;21236;-76
2021/08/31 08:53:03;;;;;;;7.75;5.60;;;18.00;99.90;;;;;;1889040;76;21145;-75
2021/08/31 08:55:30;;;;;;;11.38;5.47;;;18.10;99.90;;;;;;1889219;76;21108;-77
2021/08/31 08:57:56;;;;;;;10.00;5.25;;;18.20;99.90;;;;;;1889327;76;21087;-76
2021/08/31 09:00:22;;;;;;;5.67;4.83;;;18.20;99.90;;;;;;1889305;76;21093;-76
2021/08/31 09:02:48;;;;;;;7.80;5.10;;;18.10;99.90;;;;;;1889304;76;21092;-76
2021/08/31 09:05:14;;;;;;;5.62;4.55;;;18.10;99.90;;;;;;1889216;76;21102;-76
2021/08/31 09:07:40;;;;;;;6.40;4.08;;;18.10;99.90;;;;;;1889032;76;21065;-76
2021/08/31 09:10:06;;;;;;;4.97;4.17;;;18.10;99.90;;;;;;1889360;76;21167;-76
2021/08/31 09:12:33;;;;;;;8.33;4.97;;;18.30;99.90;;;;;;1889138;74;21507;-77
2021/08/31 09:14:59;;;;;;;11.68;5.55;;;18.20;99.90;;;;;;1889295;76;21080;-76
2021/08/31 09:17:25;;;;;;;6.75;4.37;;;18.40;99.90;;;;;;1889072;76;21130;-76
2021/08/31 09:19:51;;;;;;;5.00;4.25;;;18.60;99.90;;;;;;1889323;75;21056;-77
2021/08/31 09:22:17;;;;;;;8.00;4.53;;;18.40;99.90;;;;;;1889233;75;21531;-76
2021/08/31 09:24:43;;;;;;;5.25;3.60;;;18.50;99.90;;;;;;1889136;76;21040;-77
2021/08/31 09:27:10;;;;;;;4.90;4.42;;;18.60;99.90;;;;;;1889209;75;21045;-76
2021/08/31 09:29:37;;;;;;;9.30;4.28;;;18.80;99.90;;;;;;1889347;76;21096;-76
2021/08/31 09:32:03;;;;;;;7.78;4.72;;;18.80;99.90;;;;;;1889366;75;21079;-76
2021/08/31 09:34:29;;;;;;;5.08;4.35;;;18.90;99.90;;;;;;1889443;76;21138;-76
2021/08/31 09:36:55;;;;;;;4.67;3.92;;;18.90;99.90;;;;;;1889431;76;21111;-77
2021/08/31 09:39:22;;;;;;;8.68;4.03;;;19.00;99.90;;;;;;1890548;76;21367;-77
2021/08/31 09:41:48;;;;;;;5.83;4.42;;;19.00;99.90;;;;;;1892819;74;21048;-77
2021/08/31 09:44:14;;;;;;;6.47;4.53;;;18.70;99.90;;;;;;1891558;76;21133;-76
2021/08/31 09:46:40;;;;;;;5.08;4.22;;;18.60;99.90;;;;;;1889196;75;21492;-77
2021/08/31 09:49:06;;;;;;;5.30;4.30;;;18.40;99.90;;;;;;1889245;76;21515;-76
2021/08/31 09:51:33;;;;;;;5.10;4.37;;;18.10;99.90;;;;;;1889154;76;21442;-76
2021/08/31 09:53:59;;;;;;;5.08;4.30;;;18.00;99.90;;;;;;1890326;76;21515;-74
2021/08/31 09:56:25;;;;;;;5.22;3.85;;;18.00;99.90;;;;;;1878499;76;21075;-75
2021/08/31 09:58:51;;;;;;;5.00;3.80;;;17.90;99.90;;;;;;1888989;76;21040;-76
2021/08/31 10:01:17;;;;;;;4.78;3.77;;;18.00;99.90;;;;;;1889113;75;21048;-75
2021/08/31 10:03:44;;;;;;;4.65;3.77;;;18.10;99.90;;;;;;1889014;76;21071;-75
2021/08/31 10:06:10;;;;;;;5.55;4.00;;;18.20;99.90;;;;;;1889297;76;21108;-76
2021/08/31 10:08:38;;;;;;;4.37;3.72;;;18.30;99.90;;;;;;1889113;76;21116;-76
2021/08/31 10:11:04;;;;;;;6.35;4.03;;;18.20;99.90;;;;;;1889021;75;21103;-76
2021/08/31 10:13:30;;;;;;;4.10;3.37;;;18.30;99.90;;;;;;1889126;76;21041;-76
2021/08/31 10:15:56;;;;;;;5.37;3.83;;;18.20;99.90;;;;;;1889214;76;21115;-76
2021/08/31 10:18:22;;;;;;;6.65;4.30;;;18.10;99.90;;;;;;1889238;76;21072;-76
2021/08/31 10:20:48;;;;;;;6.65;4.10;;;18.10;99.90;;;;;;1889617;75;21519;-76
2021/08/31 10:23:14;;;;;;;4.40;3.60;;;17.90;99.90;;;;;;1900379;75;21523;-76
2021/08/31 10:25:41;;;;;;;4.10;3.65;;;17.90;99.90;;;;;;1888966;76;21437;-76
2021/08/31 10:28:07;;;;;;;3.60;3.30;;;18.00;99.90;;;;;;1889083;76;21502;-76
2021/08/31 10:30:35;;;;;;;4.80;3.90;;;18.10;99.90;;;;;;1894761;75;21588;-76
2021/08/31 10:33:01;;;;;;;7.05;3.87;;;18.10;99.90;;;;;;1891188;75;21083;-76
2021/08/31 10:35:27;;;;;;;6.70;4.30;;;18.00;99.90;;;;;;1892995;74;21041;-76
2021/08/31 10:37:53;;;;;;;4.10;3.47;;;18.20;99.90;;;;;;1895473;75;21080;-76
2021/08/31 10:40:19;;;;;;;3.98;3.55;;;18.50;99.90;;;;;;1889083;76;21488;-76
2021/08/31 10:42:46;;;;;;;7.35;3.62;;;18.60;99.90;;;;;;1895210;75;21641;-76
2021/08/31 10:45:12;;;;;;;3.37;3.08;;;18.70;99.90;;;;;;1889092;76;21052;-76
2021/08/31 10:47:39;;;;;;;7.20;3.08;;;18.70;99.90;;;;;;1889209;76;21149;-77
2021/08/31 10:50:08;;;;;;;5.30;3.15;;;18.80;99.90;;;;;;1889154;76;21571;-77
2021/08/31 10:52:33;;;;;;;3.87;3.10;;;18.80;99.90;;;;;;1888913;75;21075;-77
2021/08/31 10:54:59;;;;;;;3.55;3.22;;;18.90;99.90;;;;;;1889162;76;21068;-77
2021/08/31 10:57:26;;;;;;;3.65;3.12;;;18.90;99.90;;;;;;1888935;76;21096;-76
2021/08/31 10:59:52;;;;;;;3.72;3.42;;;18.90;99.90;;;;;;1889099;76;21072;-76
2021/08/31 11:02:18;;;;;;;5.30;3.17;;;19.10;99.90;;;;;;1888910;76;21137;-76
2021/08/31 11:04:44;;;;;;;3.65;3.25;;;19.50;99.90;;;;;;1889159;75;21142;-77
2021/08/31 11:07:10;;;;;;;6.97;2.85;;;19.50;99.90;;;;;;1889091;76;21041;-76
2021/08/31 11:09:38;;;;;;;4.40;3.15;;;18.80;99.90;;;;;;1889038;76;21111;-75
2021/08/31 11:12:04;;;;;;;3.62;3.33;;;18.50;99.90;;;;;;1889129;76;21080;-76
2021/08/31 11:14:30;;;;;;;4.47;3.50;;;18.80;99.90;;;;;;1889008;76;21445;-76
2021/08/31 11:16:56;;;;;;;3.58;2.85;;;19.40;99.90;;;;;;1889061;76;21500;-76
2021/08/31 11:19:23;;;;;;;2.95;2.60;;;19.50;99.90;;;;;;1889152;76;21064;-75
2021/08/31 11:21:49;;;;;;;3.72;2.70;;;19.70;99.90;;;;;;1889477;76;21068;-74
2021/08/31 11:24:15;;;;;;;6.58;3.77;;;19.60;99.90;;;;;;1889485;75;21048;-74
2021/08/31 11:26:42;;;;;;;3.22;2.90;;;19.20;99.90;;;;;;1877237;76;21052;-74
2021/08/31 11:29:08;;;;;;;2.95;2.65;;;19.20;99.90;;;;;;1889579;75;21072;-75
2021/08/31 11:31:35;;;;;;;2.47;2.27;;;19.40;99.90;;;;;;1889430;76;21142;-75
2021/08/31 11:34:01;;;;;;;4.33;2.83;;;19.50;99.90;;;;;;1889495;76;21037;-76
2021/08/31 11:36:30;;;;;;;3.37;2.72;;;19.40;99.90;;;;;;1889439;75;21072;-75
2021/08/31 11:38:56;;;;;;;3.65;2.80;;;19.70;99.90;;;;;;1889004;75;21129;-77
2021/08/31 11:41:22;;;;;;;3.92;2.77;;;19.90;99.90;;;;;;1889426;75;21226;-76
2021/08/31 11:43:48;;;;;;;8.05;3.40;;;20.00;99.90;;;;;;1889371;75;21127;-75
2021/08/31 11:46:14;;;;;;;3.67;3.17;;;20.20;99.90;;;;;;1889389;75;21138;-75
2021/08/31 11:48:42;;;;;;;3.17;2.58;;;20.10;99.90;;;;;;1889420;75;21044;-76
2021/08/31 11:51:09;;;;;;;20.82;3.42;;;20.20;99.90;;;;;;1889289;75;21071;-76
2021/08/31 11:53:36;;;;;;;2.87;2.67;;;20.20;99.90;;;;;;1889274;75;21193;-76
2021/08/31 11:56:02;;;;;;;3.72;3.12;;;20.40;99.90;;;;;;1889225;75;21075;-76
2021/08/31 11:58:28;;;;;;;4.05;2.85;;;20.60;99.90;;;;;;1889428;75;21130;-76
2021/08/31 12:00:55;;;;;;;3.17;2.60;;;20.50;99.90;;;;;;1889296;76;21041;-75
2021/08/31 12:03:21;;;;;;;2.90;2.52;;;20.70;99.90;;;;;;1889534;76;21040;-75
2021/08/31 12:05:47;;;;;;;5.05;2.33;;;20.30;99.90;;;;;;1889802;75;21101;-76
2021/08/31 12:08:13;;;;;;;3.80;2.45;;;20.50;99.90;;;;;;1889686;76;21076;-77
2021/08/31 12:10:39;;;;;;;4.85;2.80;;;20.90;99.90;;;;;;1889516;75;21130;-76
2021/08/31 12:13:05;;;;;;;7.15;3.00;;;20.90;99.90;;;;;;1889766;76;21101;-76
2021/08/31 12:15:32;;;;;;;6.15;3.17;;;20.80;99.90;;;;;;1889615;76;21076;-76
2021/08/31 12:17:58;;;;;;;4.60;2.60;;;20.70;99.90;;;;;;1889733;76;21174;-76
2021/08/31 12:20:24;;;;;;;4.37;3.20;;;20.80;99.90;;;;;;1889662;76;21044;-76
2021/08/31 12:22:50;;;;;;;3.00;2.70;;;20.90;99.90;;;;;;1889470;76;21076;-75
2021/08/31 12:25:18;;;;;;;2.98;2.67;;;20.80;99.90;;;;;;1889616;76;21132;-76
2021/08/31 12:27:44;;;;;;;4.03;2.90;;;20.90;99.90;;;;;;1889619;76;21519;-74
2021/08/31 12:30:10;;;;;;;4.37;2.75;;;21.10;99.90;;;;;;1889496;76;21558;-74
2021/08/31 12:32:36;;;;;;;4.92;2.62;;;21.20;99.90;;;;;;1889593;76;21864;-75
2021/08/31 12:35:02;;;;;;;4.55;2.75;;;21.40;99.90;;;;;;1889533;76;21064;-76
2021/08/31 12:37:28;;;;;;;6.08;3.15;;;22.80;99.90;;;;;;1889540;76;21063;-73